createdAt,value
2023-01-08T00:00:06.168Z,42.63
2023-01-08T00:02:32.901Z,42.63
2023-01-08T00:04:59.565Z,42.64
2023-01-08T00:07:26.247Z,42.76
2023-01-08T00:09:55.139Z,42.34
2023-01-08T00:12:21.782Z,42.82
2023-01-08T00:14:48.508Z,42.62
2023-01-08T00:17:15.130Z,42.77
2023-01-08T00:19:43.274Z,42.63
2023-01-08T00:22:10.296Z,42.96
2023-01-08T00:24:37.067Z,42.81
2023-01-08T00:27:03.815Z,42.73
2023-01-08T00:29:30.894Z,42.63
2023-01-08T00:31:57.484Z,42.61
2023-01-08T00:34:24.195Z,42.45
2023-01-08T00:36:50.875Z,42.60
2023-01-08T00:39:17.485Z,42.48
2023-01-08T00:41:45.645Z,42.73
2023-01-08T00:44:12.347Z,42.61
2023-01-08T00:46:38.996Z,42.76
2023-01-08T00:49:05.836Z,42.47
2023-01-08T00:51:32.542Z,42.30
2023-01-08T00:53:59.251Z,42.65
2023-01-08T00:56:28.530Z,42.47
2023-01-08T00:58:55.767Z,42.31
2023-01-08T01:01:22.665Z,42.46
2023-01-08T01:03:49.365Z,42.73
2023-01-08T01:06:16.147Z,42.71
2023-01-08T01:08:44.495Z,42.42
2023-01-08T01:11:14.130Z,42.49
2023-01-08T01:13:40.743Z,42.84
2023-01-08T01:16:07.968Z,42.71
2023-01-08T01:18:35.052Z,42.54
2023-01-08T01:21:01.704Z,43.01
2023-01-08T01:23:29.096Z,42.72
2023-01-08T01:25:55.755Z,43.18
2023-01-08T01:28:22.390Z,43.19
2023-01-08T01:30:53.980Z,43.18
2023-01-08T01:33:20.700Z,43.29
2023-01-08T01:35:47.424Z,43.32
2023-01-08T01:38:14.569Z,43.21
2023-01-08T01:40:43.223Z,43.34
2023-01-08T01:43:13.724Z,43.34
2023-01-08T01:45:41.315Z,43.52
2023-01-08T01:48:11.429Z,43.13
2023-01-08T01:50:47.629Z,43.32
2023-01-08T01:53:18.333Z,43.37
2023-01-08T01:55:46.111Z,43.46
2023-01-08T01:58:14.525Z,43.57
2023-01-08T02:00:41.885Z,43.32
2023-01-08T02:03:10.148Z,43.57
2023-01-08T02:05:46.430Z,43.43
2023-01-08T02:08:15.797Z,43.66
2023-01-08T02:10:49.546Z,43.74
2023-01-08T02:13:21.112Z,43.60
2023-01-08T02:15:53.771Z,44.17
2023-01-08T02:18:25.439Z,44.06
2023-01-08T02:21:01.447Z,43.98
2023-01-08T02:23:37.688Z,44.38
2023-01-08T02:26:07.843Z,44.06
2023-01-08T02:28:38.407Z,44.25
2023-01-08T02:31:06.294Z,44.49
2023-01-08T02:33:33.367Z,44.40
2023-01-08T02:36:09.593Z,44.29
2023-01-08T02:38:37.117Z,44.16
2023-01-08T02:41:05.717Z,44.26
2023-01-08T02:43:38.329Z,44.34
2023-01-08T02:46:06.315Z,44.22
2023-01-08T02:48:34.294Z,44.38
2023-01-08T02:51:04.703Z,44.44
2023-01-08T02:53:33.583Z,44.23
2023-01-08T02:56:09.527Z,44.61
2023-01-08T02:58:37.495Z,44.58
2023-01-08T03:01:06.825Z,44.76
2023-01-08T03:03:35.242Z,45.00
2023-01-08T03:06:05.820Z,45.39
2023-01-08T03:08:35.064Z,45.52
2023-01-08T03:11:06.875Z,45.19
2023-01-08T03:13:42.491Z,45.54
2023-01-08T03:16:11.199Z,45.86
2023-01-08T03:18:41.603Z,45.82
2023-01-08T03:21:08.933Z,46.14
2023-01-08T03:23:37.507Z,46.11
2023-01-08T03:26:05.900Z,46.04
2023-01-08T03:28:39.367Z,46.26
2023-01-08T03:31:07.061Z,46.06
2023-01-08T03:33:35.205Z,46.16
2023-01-08T03:36:03.909Z,46.69
2023-01-08T03:38:34.141Z,46.84
2023-01-08T03:41:04.118Z,46.60
2023-01-08T03:43:30.838Z,46.63
2023-01-08T03:45:59.354Z,46.66
2023-01-08T03:48:26.773Z,46.69
2023-01-08T03:50:53.547Z,46.92
2023-01-08T03:53:20.180Z,47.32
2023-01-08T03:55:46.809Z,47.04
2023-01-08T03:58:13.598Z,47.04
2023-01-08T04:00:40.291Z,47.07
2023-01-08T04:03:06.932Z,47.65
2023-01-08T04:05:33.567Z,47.36
2023-01-08T04:08:00.224Z,47.42
2023-01-08T04:10:27.064Z,47.86
2023-01-08T04:12:53.653Z,47.61
2023-01-08T04:15:20.474Z,48.09
2023-01-08T04:17:47.104Z,48.12
2023-01-08T04:20:13.737Z,47.77
2023-01-08T04:22:40.462Z,48.15
2023-01-08T04:25:07.460Z,47.91
2023-01-08T04:27:34.048Z,47.70
2023-01-08T04:30:00.738Z,47.87
2023-01-08T04:32:27.359Z,47.93
2023-01-08T04:34:54.075Z,45.49
2023-01-08T04:37:20.709Z,44.80
2023-01-08T04:39:47.379Z,45.65
2023-01-08T04:42:13.975Z,45.87
2023-01-08T04:44:40.584Z,46.45
2023-01-08T04:47:07.353Z,47.00
2023-01-08T04:49:34.039Z,47.29
2023-01-08T04:52:00.734Z,47.74
2023-01-08T04:54:27.352Z,47.95
2023-01-08T04:56:54.063Z,49.32
2023-01-08T04:59:20.759Z,49.84
2023-01-08T05:01:47.549Z,49.98
2023-01-08T05:04:14.266Z,50.65
2023-01-08T05:06:40.867Z,51.02
2023-01-08T05:09:07.519Z,51.36
2023-01-08T05:11:35.745Z,51.35
2023-01-08T05:14:02.365Z,46.49
2023-01-08T05:16:28.990Z,46.61
2023-01-08T05:18:55.609Z,47.63
2023-01-08T05:21:22.239Z,47.88
2023-01-08T05:23:48.949Z,48.64
2023-01-08T05:26:16.128Z,49.13
2023-01-08T05:28:42.776Z,49.30
2023-01-08T05:31:09.590Z,49.52
2023-01-08T05:33:36.238Z,49.56
2023-01-08T05:36:04.809Z,49.85
2023-01-08T05:38:31.410Z,49.94
2023-01-08T05:40:58.018Z,50.04
2023-01-08T05:43:24.664Z,50.11
2023-01-08T05:45:51.290Z,50.12
2023-01-08T05:48:17.893Z,50.18
2023-01-08T05:50:44.718Z,50.02
2023-01-08T05:53:11.358Z,49.92
2023-01-08T05:55:38.030Z,49.87
2023-01-08T05:58:05.416Z,49.79
2023-01-08T06:00:32.750Z,50.03
2023-01-08T06:02:59.424Z,49.88
2023-01-08T06:05:26.124Z,50.02
2023-01-08T06:07:52.863Z,49.79
2023-01-08T06:10:19.503Z,49.94
2023-01-08T06:12:46.217Z,49.87
2023-01-08T06:15:13.022Z,50.11
2023-01-08T06:17:39.714Z,49.79
2023-01-08T06:20:06.781Z,49.38
2023-01-08T06:22:33.774Z,49.36
2023-01-08T06:25:00.669Z,49.01
2023-01-08T06:27:27.350Z,49.02
2023-01-08T06:29:53.952Z,49.03
2023-01-08T06:32:20.624Z,48.58
2023-01-08T06:34:47.303Z,48.10
2023-01-08T06:37:13.925Z,48.12
2023-01-08T06:39:40.518Z,48.20
2023-01-08T06:42:07.148Z,47.98
2023-01-08T06:44:33.803Z,47.60
2023-01-08T06:47:00.452Z,47.59
2023-01-08T06:49:27.173Z,47.27
2023-01-08T06:51:53.946Z,47.45
2023-01-08T06:54:20.571Z,47.47
2023-01-08T06:56:53.745Z,47.38
2023-01-08T06:59:20.983Z,47.29
2023-01-08T07:01:47.731Z,47.12
2023-01-08T07:04:14.515Z,47.21
2023-01-08T07:06:41.245Z,47.26
2023-01-08T07:09:08.288Z,47.72
2023-01-08T07:11:34.996Z,47.69
2023-01-08T07:14:01.654Z,47.85
2023-01-08T07:16:28.298Z,47.65
2023-01-08T07:18:55.058Z,47.55
2023-01-08T07:21:22.790Z,47.66
2023-01-08T07:23:49.964Z,48.24
2023-01-08T07:26:16.684Z,48.27
2023-01-08T07:28:43.689Z,48.19
2023-01-08T07:31:10.522Z,48.36
2023-01-08T07:33:37.395Z,48.68
2023-01-08T07:36:05.231Z,48.83
2023-01-08T07:38:31.843Z,48.46
2023-01-08T07:40:59.388Z,49.10
2023-01-08T07:43:26.674Z,48.69
2023-01-08T07:45:53.362Z,48.69
2023-01-08T07:48:20.011Z,48.64
2023-01-08T07:50:46.689Z,48.55
2023-01-08T07:53:13.987Z,48.53
2023-01-08T07:55:40.634Z,48.57
2023-01-08T07:58:09.176Z,48.63
2023-01-08T08:00:35.924Z,48.88
2023-01-08T08:03:04.222Z,49.16
2023-01-08T08:05:30.969Z,49.34
2023-01-08T08:07:57.673Z,49.55
2023-01-08T08:10:24.317Z,49.34
2023-01-08T08:12:50.957Z,49.21
2023-01-08T08:15:17.599Z,49.45
2023-01-08T08:17:45.353Z,49.40
2023-01-08T08:20:12.321Z,49.16
2023-01-08T08:22:38.953Z,49.12
2023-01-08T08:25:05.789Z,49.22
2023-01-08T08:27:32.408Z,48.68
2023-01-08T08:29:59.000Z,48.76
2023-01-08T08:32:25.737Z,48.77
2023-01-08T08:34:52.388Z,48.87
2023-01-08T08:37:19.048Z,48.45
2023-01-08T08:39:45.686Z,48.53
2023-01-08T08:42:12.353Z,48.67
2023-01-08T08:44:41.291Z,48.53
2023-01-08T08:47:09.628Z,48.46
2023-01-08T08:49:37.308Z,48.41
2023-01-08T08:52:04.456Z,48.34
2023-01-08T08:54:31.275Z,48.53
2023-01-08T08:56:57.999Z,48.48
2023-01-08T08:59:24.708Z,48.31
2023-01-08T09:01:51.478Z,48.44
2023-01-08T09:04:18.410Z,48.61
2023-01-08T09:06:45.055Z,48.57
2023-01-08T09:09:11.737Z,48.73
2023-01-08T09:11:38.353Z,48.72
2023-01-08T09:14:05.028Z,48.31
2023-01-08T09:16:33.230Z,48.54
2023-01-08T09:18:59.928Z,48.56
2023-01-08T09:21:26.658Z,48.30
2023-01-08T09:23:53.282Z,48.60
2023-01-08T09:26:19.937Z,48.83
2023-01-08T09:28:46.753Z,48.77
2023-01-08T09:31:13.419Z,48.68
2023-01-08T09:33:40.161Z,49.22
2023-01-08T09:36:10.613Z,48.88
2023-01-08T09:38:37.347Z,49.39
2023-01-08T09:41:09.971Z,49.28
2023-01-08T09:43:37.955Z,49.20
2023-01-08T09:46:05.983Z,49.33
2023-01-08T09:48:36.226Z,49.42
2023-01-08T09:51:02.987Z,49.51
2023-01-08T09:53:29.961Z,49.38
2023-01-08T09:56:09.617Z,49.43
2023-01-08T09:58:41.696Z,49.56
2023-01-08T10:01:11.865Z,49.42
2023-01-08T10:03:47.964Z,49.45
2023-01-08T10:06:15.387Z,49.79
2023-01-08T10:08:42.330Z,49.41
2023-01-08T10:11:10.297Z,49.38
2023-01-08T10:13:39.459Z,49.67
2023-01-08T10:16:07.644Z,49.75
2023-01-08T10:18:35.234Z,49.58
2023-01-08T10:21:01.883Z,49.61
2023-01-08T10:23:28.571Z,49.34
2023-01-08T10:25:59.376Z,49.54
2023-01-08T10:28:27.658Z,49.15
2023-01-08T10:30:58.860Z,49.23
2023-01-08T10:33:30.324Z,49.28
2023-01-08T10:36:00.514Z,48.99
2023-01-08T10:38:33.104Z,48.90
2023-01-08T10:41:03.718Z,49.22
2023-01-08T10:43:33.939Z,49.35
2023-01-08T10:46:03.422Z,48.86
2023-01-08T10:48:39.546Z,49.24
2023-01-08T10:51:13.222Z,48.79
2023-01-08T10:53:41.455Z,48.97
2023-01-08T10:56:18.453Z,49.19
2023-01-08T10:58:45.199Z,48.87
2023-01-08T11:01:13.366Z,48.99
2023-01-08T11:03:40.820Z,49.03
2023-01-08T11:06:12.113Z,49.46
2023-01-08T11:08:38.803Z,49.65
2023-01-08T11:11:14.276Z,49.65
2023-01-08T11:13:40.978Z,49.84
2023-01-08T11:16:10.797Z,49.43
2023-01-08T11:18:46.271Z,49.85
2023-01-08T11:21:22.492Z,48.55
2023-01-08T11:24:02.225Z,47.87
2023-01-08T11:26:29.314Z,45.72
2023-01-08T11:28:57.159Z,46.38
2023-01-08T11:31:33.410Z,46.93
2023-01-08T11:34:06.348Z,47.23
2023-01-08T11:36:34.842Z,47.46
2023-01-08T11:39:02.427Z,47.67
2023-01-08T11:41:30.248Z,48.19
2023-01-08T11:44:06.470Z,48.00
2023-01-08T11:46:40.004Z,48.73
2023-01-08T11:49:16.549Z,49.08
2023-01-08T11:51:55.088Z,49.00
2023-01-08T11:54:25.066Z,49.45
2023-01-08T11:57:01.479Z,49.85
2023-01-08T11:59:36.876Z,50.04
2023-01-08T12:02:16.095Z,50.63
2023-01-08T12:04:52.451Z,49.68
2023-01-08T12:07:25.923Z,48.94
2023-01-08T12:10:02.561Z,48.54
2023-01-08T12:12:30.405Z,48.33
2023-01-08T12:15:06.436Z,48.02
2023-01-08T12:17:44.105Z,47.43
2023-01-08T12:20:21.491Z,47.34
2023-01-08T12:22:56.220Z,47.26
2023-01-08T12:25:33.065Z,46.95
2023-01-08T12:28:06.255Z,46.56
2023-01-08T12:30:42.441Z,46.16
2023-01-08T12:33:13.178Z,46.54
2023-01-08T12:35:41.931Z,46.51
2023-01-08T12:38:13.423Z,46.05
2023-01-08T12:40:47.267Z,43.89
2023-01-08T12:43:18.843Z,44.48
2023-01-08T12:45:47.256Z,44.98
2023-01-08T12:48:16.202Z,44.87
2023-01-08T12:50:43.021Z,44.78
2023-01-08T12:53:19.292Z,45.25
2023-01-08T12:56:00.107Z,45.46
2023-01-08T12:58:31.898Z,45.24
2023-01-08T13:01:10.253Z,45.10
2023-01-08T13:03:37.368Z,45.26
2023-01-08T13:06:09.087Z,45.91
2023-01-08T13:08:37.256Z,45.80
2023-01-08T13:11:04.120Z,45.50
2023-01-08T13:13:32.482Z,45.46
2023-01-08T13:16:08.502Z,45.70
2023-01-08T13:18:35.430Z,45.55
2023-01-08T13:21:03.381Z,45.50
2023-01-08T13:23:31.121Z,45.56
2023-01-08T13:25:59.315Z,45.57
2023-01-08T13:28:28.399Z,45.36
2023-01-08T13:30:56.549Z,45.20
2023-01-08T13:33:32.506Z,45.21
2023-01-08T13:36:08.559Z,44.79
2023-01-08T13:38:35.273Z,44.76
2023-01-08T13:41:01.958Z,45.09
2023-01-08T13:43:30.585Z,44.76
2023-01-08T13:45:58.540Z,45.16
2023-01-08T13:48:27.451Z,44.68
2023-01-08T13:50:54.459Z,44.96
2023-01-08T13:53:21.583Z,44.72
2023-01-08T13:55:57.506Z,45.06
2023-01-08T13:58:25.467Z,44.69
2023-01-08T14:00:54.296Z,44.59
2023-01-08T14:03:24.276Z,44.98
2023-01-08T14:05:51.547Z,44.93
2023-01-08T14:08:22.129Z,45.11
2023-01-08T14:10:49.059Z,45.04
2023-01-08T14:13:17.417Z,45.01
2023-01-08T14:15:44.555Z,45.08
2023-01-08T14:18:13.805Z,45.02
2023-01-08T14:20:42.406Z,44.90
2023-01-08T14:23:12.179Z,45.28
2023-01-08T14:25:40.537Z,45.17
2023-01-08T14:28:07.678Z,44.99
2023-01-08T14:30:35.797Z,45.45
2023-01-08T14:33:03.088Z,45.24
2023-01-08T14:35:33.069Z,45.42
2023-01-08T14:38:00.837Z,45.14
2023-01-08T14:40:30.870Z,45.27
2023-01-08T14:42:58.917Z,45.51
2023-01-08T14:45:29.960Z,45.06
2023-01-08T14:47:59.223Z,45.35
2023-01-08T14:50:27.145Z,45.34
2023-01-08T14:52:57.718Z,45.27
2023-01-08T14:55:25.867Z,44.82
2023-01-08T14:57:53.847Z,44.88
2023-01-08T15:00:24.105Z,44.71
2023-01-08T15:02:51.157Z,44.67
2023-01-08T15:05:20.871Z,44.56
2023-01-08T15:07:57.857Z,44.67
2023-01-08T15:10:33.634Z,44.69
2023-01-08T15:13:01.394Z,44.59
2023-01-08T15:15:28.429Z,44.47
2023-01-08T15:17:55.223Z,44.62
2023-01-08T15:20:25.538Z,44.21
2023-01-08T15:22:52.275Z,43.82
2023-01-08T15:25:23.924Z,43.97
2023-01-08T15:28:01.264Z,43.56
2023-01-08T15:30:33.396Z,43.60
2023-01-08T15:33:08.285Z,43.61
2023-01-08T15:35:35.286Z,43.36
2023-01-08T15:38:02.225Z,43.62
2023-01-08T15:40:29.048Z,43.29
2023-01-08T15:43:08.505Z,43.45
2023-01-08T15:45:35.317Z,43.57
2023-01-08T15:48:02.479Z,43.74
2023-01-08T15:50:29.735Z,43.57
2023-01-08T15:52:57.632Z,43.99
2023-01-08T15:55:25.199Z,43.82
2023-01-08T15:57:52.123Z,43.37
2023-01-08T16:00:20.746Z,43.25
2023-01-08T16:02:48.785Z,43.56
2023-01-08T16:05:17.858Z,43.41
2023-01-08T16:07:46.344Z,43.22
2023-01-08T16:10:13.995Z,43.36
2023-01-08T16:12:40.885Z,43.42
2023-01-08T16:15:09.078Z,43.47
2023-01-08T16:17:36.899Z,43.25
2023-01-08T16:20:04.589Z,43.33
2023-01-08T16:22:31.330Z,43.16
2023-01-08T16:24:59.340Z,43.35
2023-01-08T16:27:26.188Z,43.27
2023-01-08T16:29:52.956Z,43.04
2023-01-08T16:32:19.789Z,43.22
2023-01-08T16:34:46.525Z,42.86
2023-01-08T16:37:13.367Z,42.66
2023-01-08T16:39:40.077Z,42.72
2023-01-08T16:42:06.956Z,42.93
2023-01-08T16:44:35.904Z,43.06
2023-01-08T16:47:02.719Z,42.83
2023-01-08T16:49:29.875Z,42.83
2023-01-08T16:51:56.585Z,42.89
2023-01-08T16:54:23.532Z,42.62
2023-01-08T16:56:52.423Z,42.67
2023-01-08T16:59:23.588Z,42.62
2023-01-08T17:01:51.240Z,42.48
2023-01-08T17:04:18.005Z,42.71
2023-01-08T17:06:45.026Z,42.77
2023-01-08T17:09:11.993Z,42.71
2023-01-08T17:11:38.979Z,42.55
2023-01-08T17:14:05.856Z,42.67
2023-01-08T17:16:32.845Z,42.82
2023-01-08T17:18:59.696Z,42.70
2023-01-08T17:21:26.596Z,42.71
2023-01-08T17:23:53.377Z,42.55
2023-01-08T17:26:20.209Z,42.72
2023-01-08T17:28:47.801Z,42.75
2023-01-08T17:31:16.056Z,42.52
2023-01-08T17:33:44.087Z,42.55
2023-01-08T17:36:12.591Z,42.33
2023-01-08T17:38:39.771Z,42.32
2023-01-08T17:41:08.466Z,42.48
2023-01-08T17:46:03.892Z,42.14
2023-01-08T17:48:30.749Z,41.99
2023-01-08T17:50:57.687Z,42.12
2023-01-08T17:53:24.540Z,41.79
2023-01-08T17:55:53.776Z,42.12
2023-01-08T17:58:20.896Z,41.90
2023-01-08T18:00:47.707Z,41.68
2023-01-08T18:03:14.472Z,42.12
2023-01-08T18:05:41.211Z,41.88
2023-01-08T18:08:07.923Z,41.78
2023-01-08T18:10:34.869Z,42.18
2023-01-08T18:13:01.507Z,41.75
2023-01-08T18:15:28.527Z,42.02
2023-01-08T18:17:55.354Z,41.78
2023-01-08T18:20:22.235Z,41.62
2023-01-08T18:22:49.221Z,41.65
2023-01-08T18:25:16.106Z,41.66
2023-01-08T18:27:42.994Z,41.98
2023-01-08T18:30:10.534Z,41.63
2023-01-08T18:32:37.371Z,42.17
2023-01-08T18:35:04.437Z,41.83
2023-01-08T18:37:32.580Z,41.92
2023-01-08T18:39:59.332Z,42.04
2023-01-08T18:42:26.054Z,42.22
2023-01-08T18:44:55.616Z,42.32
2023-01-08T18:47:22.955Z,41.99
2023-01-08T18:49:52.409Z,42.44
2023-01-08T18:52:19.292Z,42.26
2023-01-08T18:54:46.157Z,42.45
2023-01-08T18:57:12.981Z,42.28
2023-01-08T18:59:39.777Z,42.46
2023-01-08T19:02:06.732Z,42.71
2023-01-08T19:04:33.678Z,42.36
2023-01-08T19:07:00.576Z,42.79
2023-01-08T19:09:28.234Z,42.73
2023-01-08T19:11:54.992Z,42.56
2023-01-08T19:14:21.998Z,42.95
2023-01-08T19:16:51.656Z,42.78
2023-01-08T19:19:19.613Z,43.00
2023-01-08T19:21:46.483Z,43.03
2023-01-08T19:24:14.507Z,42.96
2023-01-08T19:26:41.258Z,43.15
2023-01-08T19:29:08.087Z,43.10
2023-01-08T19:31:35.023Z,43.41
2023-01-08T19:34:02.155Z,43.11
2023-01-08T19:36:29.136Z,43.17
2023-01-08T19:38:55.966Z,43.56
2023-01-08T19:41:32.412Z,43.66
2023-01-08T19:43:59.776Z,43.68
2023-01-08T19:46:26.739Z,43.38
2023-01-08T19:48:56.143Z,43.73
2023-01-08T19:51:22.959Z,43.71
2023-01-08T19:53:49.709Z,43.71
2023-01-08T19:56:16.561Z,43.97
2023-01-08T19:58:43.375Z,43.82
2023-01-08T20:01:14.630Z,43.70
2023-01-08T20:03:42.161Z,43.46
2023-01-08T20:06:11.846Z,43.37
2023-01-08T20:08:38.954Z,43.70
2023-01-08T20:11:06.969Z,43.40
2023-01-08T20:13:36.347Z,43.79
2023-01-08T20:16:04.445Z,43.73
2023-01-08T20:18:31.610Z,43.34
2023-01-08T20:21:07.763Z,43.49
2023-01-08T20:23:36.702Z,43.53
2023-01-08T20:26:06.671Z,43.55
2023-01-08T20:28:34.198Z,43.55
2023-01-08T20:31:05.455Z,43.75
2023-01-08T20:33:32.183Z,43.28
2023-01-08T20:35:58.985Z,43.44
2023-01-08T20:38:25.704Z,43.53
2023-01-08T20:40:52.587Z,43.41
2023-01-08T20:43:19.438Z,43.45
2023-01-08T20:45:47.588Z,43.02
2023-01-08T20:48:14.636Z,43.36
2023-01-08T20:50:47.117Z,43.04
2023-01-08T20:53:14.788Z,42.76
2023-01-08T20:55:41.676Z,43.05
2023-01-08T20:58:08.737Z,42.76
2023-01-08T21:00:35.619Z,42.86
2023-01-08T21:03:02.484Z,42.67
2023-01-08T21:05:30.523Z,42.42
2023-01-08T21:07:57.276Z,42.29
2023-01-08T21:10:24.094Z,42.05
2023-01-08T21:12:51.147Z,42.26
2023-01-08T21:15:18.027Z,41.71
2023-01-08T21:17:44.911Z,41.74
2023-01-08T21:20:12.351Z,41.47
2023-01-08T21:22:39.151Z,40.97
2023-01-08T21:25:06.499Z,41.11
2023-01-08T21:27:33.244Z,41.07
2023-01-08T21:30:00.015Z,41.18
2023-01-08T21:32:26.776Z,41.17
2023-01-08T21:34:53.695Z,41.05
2023-01-08T21:37:20.566Z,41.05
2023-01-08T21:39:48.254Z,40.44
2023-01-08T21:42:25.056Z,40.32
2023-01-08T21:45:10.644Z,40.50
2023-01-08T21:47:37.527Z,40.34
2023-01-08T21:50:04.406Z,40.21
2023-01-08T21:52:40.398Z,40.40
2023-01-08T21:55:09.887Z,40.09
2023-01-08T21:57:38.384Z,40.34
2023-01-08T22:00:06.167Z,39.88
2023-01-08T22:02:32.924Z,40.29
2023-01-08T22:04:59.760Z,40.25
2023-01-08T22:07:26.566Z,40.17
2023-01-08T22:09:53.699Z,40.28
2023-01-08T22:12:21.044Z,40.63
2023-01-08T22:14:47.927Z,40.32
2023-01-08T22:17:14.968Z,40.52
2023-01-08T22:19:41.691Z,40.41
2023-01-08T22:22:10.716Z,40.45
2023-01-08T22:24:37.885Z,40.51
2023-01-08T22:27:04.689Z,40.55
2023-01-08T22:29:31.636Z,40.61
2023-01-08T22:31:58.519Z,40.17
2023-01-08T22:34:25.998Z,40.35
2023-01-08T22:36:53.555Z,40.23
2023-01-08T22:39:20.397Z,40.34
2023-01-08T22:41:47.295Z,40.26
2023-01-08T22:44:14.652Z,39.96
2023-01-08T22:46:41.727Z,39.88
2023-01-08T22:49:10.687Z,40.34
2023-01-08T22:51:37.630Z,40.13
2023-01-08T22:54:04.591Z,40.23
2023-01-08T22:56:31.315Z,39.93
2023-01-08T22:58:58.165Z,40.12
2023-01-08T23:01:26.059Z,40.17
2023-01-08T23:03:56.159Z,40.34
2023-01-08T23:06:23.780Z,40.11
2023-01-08T23:08:50.870Z,40.20
2023-01-08T23:11:18.185Z,40.23
2023-01-08T23:13:45.185Z,40.29
2023-01-08T23:16:13.719Z,40.22
2023-01-08T23:18:41.050Z,40.36
2023-01-08T23:21:09.248Z,39.88
2023-01-08T23:23:36.240Z,40.23
2023-01-08T23:26:05.097Z,40.38
2023-01-08T23:28:32.262Z,40.33
2023-01-08T23:30:59.192Z,40.03
2023-01-08T23:33:26.130Z,40.13
2023-01-08T23:35:53.004Z,40.42
2023-01-08T23:38:19.986Z,40.26
2023-01-08T23:40:47.183Z,40.05
2023-01-08T23:43:15.052Z,40.32
2023-01-08T23:45:41.910Z,40.52
2023-01-08T23:48:08.635Z,40.41
2023-01-08T23:50:35.589Z,40.44
2023-01-08T23:53:02.337Z,40.27
2023-01-08T23:55:29.115Z,40.22
2023-01-08T23:57:56.404Z,40.52
